sensor_id;sensor_type;location;lat;lon;timestamp;temperature;humidity
76613;DHT22;65507;48.454;-2.058;2023-06-04T00:00:23;16.10;63.90
76613;DHT22;65507;48.454;-2.058;2023-06-04T00:02:49;16.10;64.10
76613;DHT22;65507;48.454;-2.058;2023-06-04T00:05:14;16.10;64.10
76613;DHT22;65507;48.454;-2.058;2023-06-04T00:07:40;16.10;64.00
76613;DHT22;65507;48.454;-2.058;2023-06-04T00:10:05;16.00;64.00
76613;DHT22;65507;48.454;-2.058;2023-06-04T00:12:31;16.00;64.00
76613;DHT22;65507;48.454;-2.058;2023-06-04T00:14:57;16.00;64.00
76613;DHT22;65507;48.454;-2.058;2023-06-04T00:17:22;16.00;64.10
76613;DHT22;65507;48.454;-2.058;2023-06-04T00:19:48;16.00;64.10
76613;DHT22;65507;48.454;-2.058;2023-06-04T00:22:13;16.00;64.10
76613;DHT22;65507;48.454;-2.058;2023-06-04T00:24:39;15.90;64.20
76613;DHT22;65507;48.454;-2.058;2023-06-04T00:27:06;15.90;64.10
76613;DHT22;65507;48.454;-2.058;2023-06-04T00:29:32;15.90;64.10
76613;DHT22;65507;48.454;-2.058;2023-06-04T00:31:58;15.90;64.30
76613;DHT22;65507;48.454;-2.058;2023-06-04T00:34:23;15.90;64.20
76613;DHT22;65507;48.454;-2.058;2023-06-04T00:36:49;15.90;64.10
76613;DHT22;65507;48.454;-2.058;2023-06-04T00:39:14;15.80;64.20
76613;DHT22;65507;48.454;-2.058;2023-06-04T00:41:40;15.80;64.30
76613;DHT22;65507;48.454;-2.058;2023-06-04T00:44:05;15.80;64.30
76613;DHT22;65507;48.454;-2.058;2023-06-04T00:46:31;15.80;64.30
76613;DHT22;65507;48.454;-2.058;2023-06-04T00:48:57;15.70;64.40
76613;DHT22;65507;48.454;-2.058;2023-06-04T00:51:23;15.70;64.30
76613;DHT22;65507;48.454;-2.058;2023-06-04T00:53:51;15.70;64.40
76613;DHT22;65507;48.454;-2.058;2023-06-04T00:56:17;15.70;64.40
76613;DHT22;65507;48.454;-2.058;2023-06-04T00:58:44;15.60;64.40
76613;DHT22;65507;48.454;-2.058;2023-06-04T01:01:12;15.70;64.50
76613;DHT22;65507;48.454;-2.058;2023-06-04T01:03:41;15.60;64.40
76613;DHT22;65507;48.454;-2.058;2023-06-04T01:06:21;15.60;64.40
76613;DHT22;65507;48.454;-2.058;2023-06-04T01:08:51;15.60;64.40
76613;DHT22;65507;48.454;-2.058;2023-06-04T01:11:30;15.60;64.50
76613;DHT22;65507;48.454;-2.058;2023-06-04T01:13:55;15.60;64.40
76613;DHT22;65507;48.454;-2.058;2023-06-04T01:16:21;15.60;64.50
76613;DHT22;65507;48.454;-2.058;2023-06-04T01:18:46;15.50;64.50
76613;DHT22;65507;48.454;-2.058;2023-06-04T01:21:13;15.50;64.50
76613;DHT22;65507;48.454;-2.058;2023-06-04T01:23:48;15.50;64.60
76613;DHT22;65507;48.454;-2.058;2023-06-04T01:26:27;15.50;64.50
76613;DHT22;65507;48.454;-2.058;2023-06-04T01:28:53;15.50;64.60
76613;DHT22;65507;48.454;-2.058;2023-06-04T01:31:19;15.40;64.60
76613;DHT22;65507;48.454;-2.058;2023-06-04T01:33:50;15.40;64.70
76613;DHT22;65507;48.454;-2.058;2023-06-04T01:36:16;15.40;65.60
76613;DHT22;65507;48.454;-2.058;2023-06-04T01:38:42;15.30;64.80
76613;DHT22;65507;48.454;-2.058;2023-06-04T01:41:07;15.30;64.80
76613;DHT22;65507;48.454;-2.058;2023-06-04T01:43:33;15.30;64.70
76613;DHT22;65507;48.454;-2.058;2023-06-04T01:46:00;15.30;64.90
76613;DHT22;65507;48.454;-2.058;2023-06-04T01:48:26;15.20;64.90
76613;DHT22;65507;48.454;-2.058;2023-06-04T01:50:52;15.20;64.90
76613;DHT22;65507;48.454;-2.058;2023-06-04T01:53:17;15.20;64.90
76613;DHT22;65507;48.454;-2.058;2023-06-04T01:55:43;15.20;64.90
76613;DHT22;65507;48.454;-2.058;2023-06-04T01:58:09;15.20;65.00
76613;DHT22;65507;48.454;-2.058;2023-06-04T02:00:35;15.10;64.90
76613;DHT22;65507;48.454;-2.058;2023-06-04T02:03:00;15.10;64.90
76613;DHT22;65507;48.454;-2.058;2023-06-04T02:05:26;15.10;64.90
76613;DHT22;65507;48.454;-2.058;2023-06-04T02:07:52;15.10;65.00
76613;DHT22;65507;48.454;-2.058;2023-06-04T02:10:18;15.10;65.10
76613;DHT22;65507;48.454;-2.058;2023-06-04T02:12:54;15.00;65.00
76613;DHT22;65507;48.454;-2.058;2023-06-04T02:15:20;15.00;64.90
76613;DHT22;65507;48.454;-2.058;2023-06-04T02:17:45;15.00;65.10
76613;DHT22;65507;48.454;-2.058;2023-06-04T02:20:12;15.00;65.00
76613;DHT22;65507;48.454;-2.058;2023-06-04T02:22:38;15.00;65.10
76613;DHT22;65507;48.454;-2.058;2023-06-04T02:25:04;15.00;65.10
76613;DHT22;65507;48.454;-2.058;2023-06-04T02:27:30;15.00;65.10
76613;DHT22;65507;48.454;-2.058;2023-06-04T02:29:56;15.00;65.10
76613;DHT22;65507;48.454;-2.058;2023-06-04T02:32:21;14.90;65.10
76613;DHT22;65507;48.454;-2.058;2023-06-04T02:34:47;14.90;65.00
76613;DHT22;65507;48.454;-2.058;2023-06-04T02:37:14;14.90;65.10
76613;DHT22;65507;48.454;-2.058;2023-06-04T02:39:39;14.90;65.10
76613;DHT22;65507;48.454;-2.058;2023-06-04T02:42:05;14.90;65.20
76613;DHT22;65507;48.454;-2.058;2023-06-04T02:44:31;14.90;65.20
76613;DHT22;65507;48.454;-2.058;2023-06-04T02:46:56;14.80;65.20
76613;DHT22;65507;48.454;-2.058;2023-06-04T02:49:22;14.80;66.10
76613;DHT22;65507;48.454;-2.058;2023-06-04T02:51:47;14.80;65.10
76613;DHT22;65507;48.454;-2.058;2023-06-04T02:54:13;14.80;65.20
76613;DHT22;65507;48.454;-2.058;2023-06-04T02:56:39;14.70;65.30
76613;DHT22;65507;48.454;-2.058;2023-06-04T02:59:05;14.60;65.40
76613;DHT22;65507;48.454;-2.058;2023-06-04T03:01:34;14.60;65.60
76613;DHT22;65507;48.454;-2.058;2023-06-04T03:04:00;14.60;65.60
76613;DHT22;65507;48.454;-2.058;2023-06-04T03:06:29;14.50;65.60
76613;DHT22;65507;48.454;-2.058;2023-06-04T03:08:54;14.60;65.60
76613;DHT22;65507;48.454;-2.058;2023-06-04T03:11:21;14.60;65.70
76613;DHT22;65507;48.454;-2.058;2023-06-04T03:13:46;14.50;65.60
76613;DHT22;65507;48.454;-2.058;2023-06-04T03:16:12;14.50;65.50
76613;DHT22;65507;48.454;-2.058;2023-06-04T03:18:39;14.50;65.50
76613;DHT22;65507;48.454;-2.058;2023-06-04T03:21:05;14.50;65.60
76613;DHT22;65507;48.454;-2.058;2023-06-04T03:23:31;14.50;65.50
76613;DHT22;65507;48.454;-2.058;2023-06-04T03:25:57;14.50;65.50
76613;DHT22;65507;48.454;-2.058;2023-06-04T03:28:22;14.50;65.50
76613;DHT22;65507;48.454;-2.058;2023-06-04T03:30:48;14.50;65.50
76613;DHT22;65507;48.454;-2.058;2023-06-04T03:33:13;14.50;65.40
76613;DHT22;65507;48.454;-2.058;2023-06-04T03:35:42;14.50;65.40
76613;DHT22;65507;48.454;-2.058;2023-06-04T03:38:07;14.50;65.40
76613;DHT22;65507;48.454;-2.058;2023-06-04T03:40:33;14.50;65.40
76613;DHT22;65507;48.454;-2.058;2023-06-04T03:42:58;14.50;65.40
76613;DHT22;65507;48.454;-2.058;2023-06-04T03:45:25;14.40;65.40
76613;DHT22;65507;48.454;-2.058;2023-06-04T03:47:51;14.40;65.40
76613;DHT22;65507;48.454;-2.058;2023-06-04T03:50:17;14.40;65.30
76613;DHT22;65507;48.454;-2.058;2023-06-04T03:52:43;14.40;65.40
76613;DHT22;65507;48.454;-2.058;2023-06-04T03:55:08;14.40;65.50
76613;DHT22;65507;48.454;-2.058;2023-06-04T03:57:34;14.40;65.40
76613;DHT22;65507;48.454;-2.058;2023-06-04T03:59:59;14.40;65.40
76613;DHT22;65507;48.454;-2.058;2023-06-04T04:02:25;14.40;65.40
76613;DHT22;65507;48.454;-2.058;2023-06-04T04:04:51;14.40;65.70
76613;DHT22;65507;48.454;-2.058;2023-06-04T04:07:19;14.40;65.50
76613;DHT22;65507;48.454;-2.058;2023-06-04T04:09:46;14.30;65.50
76613;DHT22;65507;48.454;-2.058;2023-06-04T04:12:11;14.40;65.50
76613;DHT22;65507;48.454;-2.058;2023-06-04T04:14:37;14.40;65.50
76613;DHT22;65507;48.454;-2.058;2023-06-04T04:17:02;14.30;65.50
76613;DHT22;65507;48.454;-2.058;2023-06-04T04:19:28;14.30;65.50
76613;DHT22;65507;48.454;-2.058;2023-06-04T04:21:53;14.30;65.50
76613;DHT22;65507;48.454;-2.058;2023-06-04T04:24:37;14.20;65.80
76613;DHT22;65507;48.454;-2.058;2023-06-04T04:27:03;14.20;65.90
76613;DHT22;65507;48.454;-2.058;2023-06-04T04:29:28;14.20;66.00
76613;DHT22;65507;48.454;-2.058;2023-06-04T04:31:58;14.10;66.10
76613;DHT22;65507;48.454;-2.058;2023-06-04T04:34:26;14.10;66.00
76613;DHT22;65507;48.454;-2.058;2023-06-04T04:36:51;14.10;66.10
76613;DHT22;65507;48.454;-2.058;2023-06-04T04:39:26;14.10;66.20
76613;DHT22;65507;48.454;-2.058;2023-06-04T04:41:52;14.00;66.10
76613;DHT22;65507;48.454;-2.058;2023-06-04T04:44:17;14.00;66.20
76613;DHT22;65507;48.454;-2.058;2023-06-04T04:46:43;14.00;66.30
76613;DHT22;65507;48.454;-2.058;2023-06-04T04:49:08;14.00;67.10
76613;DHT22;65507;48.454;-2.058;2023-06-04T04:51:34;14.10;66.20
76613;DHT22;65507;48.454;-2.058;2023-06-04T04:54:00;14.10;66.20
76613;DHT22;65507;48.454;-2.058;2023-06-04T04:56:26;14.10;66.10
76613;DHT22;65507;48.454;-2.058;2023-06-04T04:58:52;14.20;66.10
76613;DHT22;65507;48.454;-2.058;2023-06-04T05:01:18;14.20;66.00
76613;DHT22;65507;48.454;-2.058;2023-06-04T05:03:44;14.30;65.90
76613;DHT22;65507;48.454;-2.058;2023-06-04T05:06:09;14.30;65.80
76613;DHT22;65507;48.454;-2.058;2023-06-04T05:08:35;14.40;65.80
76613;DHT22;65507;48.454;-2.058;2023-06-04T05:11:01;14.40;65.60
76613;DHT22;65507;48.454;-2.058;2023-06-04T05:13:26;14.50;65.50
76613;DHT22;65507;48.454;-2.058;2023-06-04T05:15:52;14.60;65.40
76613;DHT22;65507;48.454;-2.058;2023-06-04T05:18:18;14.60;65.40
76613;DHT22;65507;48.454;-2.058;2023-06-04T05:20:46;14.70;65.40
76613;DHT22;65507;48.454;-2.058;2023-06-04T05:23:11;14.70;65.30
76613;DHT22;65507;48.454;-2.058;2023-06-04T05:25:37;14.80;65.30
76613;DHT22;65507;48.454;-2.058;2023-06-04T05:28:03;14.90;65.20
76613;DHT22;65507;48.454;-2.058;2023-06-04T05:30:31;15.00;65.10
76613;DHT22;65507;48.454;-2.058;2023-06-04T05:32:56;15.10;64.80
76613;DHT22;65507;48.454;-2.058;2023-06-04T05:35:22;15.20;64.80
76613;DHT22;65507;48.454;-2.058;2023-06-04T05:37:48;15.30;64.50
76613;DHT22;65507;48.454;-2.058;2023-06-04T05:40:19;15.40;64.50
76613;DHT22;65507;48.454;-2.058;2023-06-04T05:42:44;16.50;64.80
76613;DHT22;65507;48.454;-2.058;2023-06-04T05:45:10;15.70;64.20
76613;DHT22;65507;48.454;-2.058;2023-06-04T05:47:35;15.80;63.90
76613;DHT22;65507;48.454;-2.058;2023-06-04T05:50:02;16.00;63.80
76613;DHT22;65507;48.454;-2.058;2023-06-04T05:52:27;16.10;63.60
76613;DHT22;65507;48.454;-2.058;2023-06-04T05:54:53;16.40;63.50
76613;DHT22;65507;48.454;-2.058;2023-06-04T05:57:19;16.40;63.20
76613;DHT22;65507;48.454;-2.058;2023-06-04T05:59:45;16.50;63.00
76613;DHT22;65507;48.454;-2.058;2023-06-04T06:02:11;16.60;63.00
76613;DHT22;65507;48.454;-2.058;2023-06-04T06:04:37;16.80;63.00
76613;DHT22;65507;48.454;-2.058;2023-06-04T06:07:03;16.90;62.80
76613;DHT22;65507;48.454;-2.058;2023-06-04T06:09:28;17.00;62.70
76613;DHT22;65507;48.454;-2.058;2023-06-04T06:11:54;17.10;62.70
76613;DHT22;65507;48.454;-2.058;2023-06-04T06:14:19;17.20;62.60
76613;DHT22;65507;48.454;-2.058;2023-06-04T06:16:45;17.40;62.50
76613;DHT22;65507;48.454;-2.058;2023-06-04T06:19:12;17.40;62.60
76613;DHT22;65507;48.454;-2.058;2023-06-04T06:21:38;17.50;62.40
76613;DHT22;65507;48.454;-2.058;2023-06-04T06:24:03;17.60;62.50
76613;DHT22;65507;48.454;-2.058;2023-06-04T06:26:29;17.60;62.70
76613;DHT22;65507;48.454;-2.058;2023-06-04T06:28:55;17.70;62.50
76613;DHT22;65507;48.454;-2.058;2023-06-04T06:31:21;17.80;62.40
76613;DHT22;65507;48.454;-2.058;2023-06-04T06:33:46;17.90;62.50
76613;DHT22;65507;48.454;-2.058;2023-06-04T06:36:12;18.00;62.30
76613;DHT22;65507;48.454;-2.058;2023-06-04T06:38:38;18.10;62.20
76613;DHT22;65507;48.454;-2.058;2023-06-04T06:41:03;18.20;62.20
76613;DHT22;65507;48.454;-2.058;2023-06-04T06:43:29;18.30;62.10
76613;DHT22;65507;48.454;-2.058;2023-06-04T06:45:55;18.30;62.00
76613;DHT22;65507;48.454;-2.058;2023-06-04T06:48:20;18.40;62.10
76613;DHT22;65507;48.454;-2.058;2023-06-04T06:50:46;18.40;63.10
76613;DHT22;65507;48.454;-2.058;2023-06-04T06:53:11;18.40;62.20
76613;DHT22;65507;48.454;-2.058;2023-06-04T06:55:37;18.40;62.20
76613;DHT22;65507;48.454;-2.058;2023-06-04T06:58:05;18.60;62.10
76613;DHT22;65507;48.454;-2.058;2023-06-04T07:00:31;19.80;62.60
76613;DHT22;65507;48.454;-2.058;2023-06-04T07:02:57;18.60;62.10
76613;DHT22;65507;48.454;-2.058;2023-06-04T07:05:22;18.60;62.20
76613;DHT22;65507;48.454;-2.058;2023-06-04T07:07:48;18.60;62.10
76613;DHT22;65507;48.454;-2.058;2023-06-04T07:10:13;18.70;62.00
76613;DHT22;65507;48.454;-2.058;2023-06-04T07:12:39;18.80;62.10
76613;DHT22;65507;48.454;-2.058;2023-06-04T07:15:05;18.90;61.70
76613;DHT22;65507;48.454;-2.058;2023-06-04T07:17:31;19.00;61.60
76613;DHT22;65507;48.454;-2.058;2023-06-04T07:19:57;19.00;61.70
76613;DHT22;65507;48.454;-2.058;2023-06-04T07:22:23;19.10;61.60
76613;DHT22;65507;48.454;-2.058;2023-06-04T07:24:48;19.00;61.60
76613;DHT22;65507;48.454;-2.058;2023-06-04T07:27:14;19.00;61.70
76613;DHT22;65507;48.454;-2.058;2023-06-04T07:29:40;19.00;61.80
76613;DHT22;65507;48.454;-2.058;2023-06-04T07:32:05;19.00;61.90
76613;DHT22;65507;48.454;-2.058;2023-06-04T07:34:31;19.00;61.90
76613;DHT22;65507;48.454;-2.058;2023-06-04T07:36:57;19.00;61.80
76613;DHT22;65507;48.454;-2.058;2023-06-04T07:39:22;19.00;62.00
76613;DHT22;65507;48.454;-2.058;2023-06-04T07:41:48;19.00;62.00
76613;DHT22;65507;48.454;-2.058;2023-06-04T07:44:14;19.10;61.80
76613;DHT22;65507;48.454;-2.058;2023-06-04T07:46:39;19.10;61.70
76613;DHT22;65507;48.454;-2.058;2023-06-04T07:49:05;19.20;61.70
76613;DHT22;65507;48.454;-2.058;2023-06-04T07:51:30;19.30;61.50
76613;DHT22;65507;48.454;-2.058;2023-06-04T07:53:56;19.40;61.40
76613;DHT22;65507;48.454;-2.058;2023-06-04T07:56:21;19.50;61.30
76613;DHT22;65507;48.454;-2.058;2023-06-04T07:58:47;19.60;61.10
76613;DHT22;65507;48.454;-2.058;2023-06-04T08:01:13;19.60;60.90
76613;DHT22;65507;48.454;-2.058;2023-06-04T08:03:38;19.70;61.00
76613;DHT22;65507;48.454;-2.058;2023-06-04T08:06:05;19.70;60.80
76613;DHT22;65507;48.454;-2.058;2023-06-04T08:08:31;19.90;60.70
76613;DHT22;65507;48.454;-2.058;2023-06-04T08:10:59;20.00;60.50
76613;DHT22;65507;48.454;-2.058;2023-06-04T08:13:24;20.10;60.40
76613;DHT22;65507;48.454;-2.058;2023-06-04T08:15:50;20.10;60.50
76613;DHT22;65507;48.454;-2.058;2023-06-04T08:18:15;20.20;60.30
76613;DHT22;65507;48.454;-2.058;2023-06-04T08:20:41;20.30;60.40
76613;DHT22;65507;48.454;-2.058;2023-06-04T08:23:06;20.30;60.30
76613;DHT22;65507;48.454;-2.058;2023-06-04T08:25:32;20.40;60.10
76613;DHT22;65507;48.454;-2.058;2023-06-04T08:27:58;20.50;60.10
76613;DHT22;65507;48.454;-2.058;2023-06-04T08:30:24;20.60;60.00
76613;DHT22;65507;48.454;-2.058;2023-06-04T08:32:50;20.70;60.00
76613;DHT22;65507;48.454;-2.058;2023-06-04T08:35:16;20.70;60.00
76613;DHT22;65507;48.454;-2.058;2023-06-04T08:37:42;20.80;60.00
76613;DHT22;65507;48.454;-2.058;2023-06-04T08:40:08;20.90;59.80
76613;DHT22;65507;48.454;-2.058;2023-06-04T08:42:38;20.90;59.80
76613;DHT22;65507;48.454;-2.058;2023-06-04T08:45:07;20.80;59.80
76613;DHT22;65507;48.454;-2.058;2023-06-04T08:47:35;20.90;60.00
76613;DHT22;65507;48.454;-2.058;2023-06-04T08:50:01;20.90;59.90
76613;DHT22;65507;48.454;-2.058;2023-06-04T08:52:27;20.90;59.90
76613;DHT22;65507;48.454;-2.058;2023-06-04T08:54:53;21.00;59.90
76613;DHT22;65507;48.454;-2.058;2023-06-04T08:57:19;20.90;59.80
76613;DHT22;65507;48.454;-2.058;2023-06-04T08:59:47;20.80;60.00
76613;DHT22;65507;48.454;-2.058;2023-06-04T09:02:16;20.80;60.00
76613;DHT22;65507;48.454;-2.058;2023-06-04T09:04:42;20.80;60.00
76613;DHT22;65507;48.454;-2.058;2023-06-04T09:07:08;20.90;59.90
76613;DHT22;65507;48.454;-2.058;2023-06-04T09:09:37;20.90;59.70
76613;DHT22;65507;48.454;-2.058;2023-06-04T09:12:03;21.00;59.60
76613;DHT22;65507;48.454;-2.058;2023-06-04T09:14:31;21.00;59.50
76613;DHT22;65507;48.454;-2.058;2023-06-04T09:16:57;21.10;59.40
76613;DHT22;65507;48.454;-2.058;2023-06-04T09:19:24;21.20;59.30
76613;DHT22;65507;48.454;-2.058;2023-06-04T09:24:15;21.20;58.90
76613;DHT22;65507;48.454;-2.058;2023-06-04T09:26:40;21.20;58.90
76613;DHT22;65507;48.454;-2.058;2023-06-04T09:29:06;21.20;58.80
76613;DHT22;65507;48.454;-2.058;2023-06-04T09:31:32;21.30;58.80
76613;DHT22;65507;48.454;-2.058;2023-06-04T09:34:05;21.40;58.70
76613;DHT22;65507;48.454;-2.058;2023-06-04T09:36:31;21.60;58.40
76613;DHT22;65507;48.454;-2.058;2023-06-04T09:38:57;21.60;58.20
76613;DHT22;65507;48.454;-2.058;2023-06-04T09:41:23;21.70;58.20
76613;DHT22;65507;48.454;-2.058;2023-06-04T09:43:49;21.70;58.10
76613;DHT22;65507;48.454;-2.058;2023-06-04T09:46:15;21.80;57.90
76613;DHT22;65507;48.454;-2.058;2023-06-04T09:48:41;21.80;57.90
76613;DHT22;65507;48.454;-2.058;2023-06-04T09:51:08;21.90;57.70
76613;DHT22;65507;48.454;-2.058;2023-06-04T09:53:34;22.00;57.70
76613;DHT22;65507;48.454;-2.058;2023-06-04T09:56:00;22.10;57.70
76613;DHT22;65507;48.454;-2.058;2023-06-04T09:58:26;22.10;57.50
76613;DHT22;65507;48.454;-2.058;2023-06-04T10:00:53;22.10;57.40
76613;DHT22;65507;48.454;-2.058;2023-06-04T10:03:19;22.20;57.40
76613;DHT22;65507;48.454;-2.058;2023-06-04T10:05:48;22.20;57.40
76613;DHT22;65507;48.454;-2.058;2023-06-04T10:08:14;22.20;57.60
76613;DHT22;65507;48.454;-2.058;2023-06-04T10:10:41;22.20;57.50
76613;DHT22;65507;48.454;-2.058;2023-06-04T10:13:07;22.00;57.50
76613;DHT22;65507;48.454;-2.058;2023-06-04T10:15:35;21.60;57.40
76613;DHT22;65507;48.454;-2.058;2023-06-04T10:18:01;22.00;57.60
76613;DHT22;65507;48.454;-2.058;2023-06-04T10:20:28;22.10;57.60
76613;DHT22;65507;48.454;-2.058;2023-06-04T10:22:53;22.20;57.30
76613;DHT22;65507;48.454;-2.058;2023-06-04T10:25:20;22.40;57.00
76613;DHT22;65507;48.454;-2.058;2023-06-04T10:27:46;22.50;56.90
76613;DHT22;65507;48.454;-2.058;2023-06-04T10:30:12;22.70;56.70
76613;DHT22;65507;48.454;-2.058;2023-06-04T10:32:37;22.70;56.60
76613;DHT22;65507;48.454;-2.058;2023-06-04T10:35:04;22.70;56.40
76613;DHT22;65507;48.454;-2.058;2023-06-04T10:37:29;22.70;56.30
76613;DHT22;65507;48.454;-2.058;2023-06-04T10:39:56;22.70;56.50
76613;DHT22;65507;48.454;-2.058;2023-06-04T10:42:22;22.80;56.40
76613;DHT22;65507;48.454;-2.058;2023-06-04T10:44:48;22.90;56.30
76613;DHT22;65507;48.454;-2.058;2023-06-04T10:47:26;23.00;56.10
76613;DHT22;65507;48.454;-2.058;2023-06-04T10:49:53;23.00;55.90
76613;DHT22;65507;48.454;-2.058;2023-06-04T10:52:19;23.20;55.90
76613;DHT22;65507;48.454;-2.058;2023-06-04T10:54:45;23.20;55.70
76613;DHT22;65507;48.454;-2.058;2023-06-04T10:57:17;23.30;55.70
76613;DHT22;65507;48.454;-2.058;2023-06-04T10:59:56;24.00;55.90
76613;DHT22;65507;48.454;-2.058;2023-06-04T11:02:22;23.50;55.40
76613;DHT22;65507;48.454;-2.058;2023-06-04T11:04:58;23.60;55.40
76613;DHT22;65507;48.454;-2.058;2023-06-04T11:07:23;23.60;55.30
76613;DHT22;65507;48.454;-2.058;2023-06-04T11:09:50;23.70;55.20
76613;DHT22;65507;48.454;-2.058;2023-06-04T11:12:15;23.70;55.10
76613;DHT22;65507;48.454;-2.058;2023-06-04T11:14:41;24.50;55.40
76613;DHT22;65507;48.454;-2.058;2023-06-04T11:17:18;23.80;55.00
76613;DHT22;65507;48.454;-2.058;2023-06-04T11:19:43;23.80;54.90
76613;DHT22;65507;48.454;-2.058;2023-06-04T11:22:12;23.90;54.70
76613;DHT22;65507;48.454;-2.058;2023-06-04T11:24:38;23.90;54.60
76613;DHT22;65507;48.454;-2.058;2023-06-04T11:27:03;23.90;54.70
76613;DHT22;65507;48.454;-2.058;2023-06-04T11:29:29;24.10;54.50
76613;DHT22;65507;48.454;-2.058;2023-06-04T11:31:54;24.20;54.40
76613;DHT22;65507;48.454;-2.058;2023-06-04T11:34:24;24.30;54.20
76613;DHT22;65507;48.454;-2.058;2023-06-04T11:36:49;24.40;54.20
76613;DHT22;65507;48.454;-2.058;2023-06-04T11:39:18;24.40;54.00
76613;DHT22;65507;48.454;-2.058;2023-06-04T11:41:44;24.50;53.90
76613;DHT22;65507;48.454;-2.058;2023-06-04T11:44:10;24.50;53.80
76613;DHT22;65507;48.454;-2.058;2023-06-04T11:46:39;24.50;53.60
76613;DHT22;65507;48.454;-2.058;2023-06-04T11:49:05;24.40;53.80
76613;DHT22;65507;48.454;-2.058;2023-06-04T11:51:30;24.40;53.80
76613;DHT22;65507;48.454;-2.058;2023-06-04T11:53:56;24.40;53.80
76613;DHT22;65507;48.454;-2.058;2023-06-04T11:56:25;24.50;53.70
76613;DHT22;65507;48.454;-2.058;2023-06-04T11:58:56;24.50;53.70
76613;DHT22;65507;48.454;-2.058;2023-06-04T12:01:22;24.60;53.50
76613;DHT22;65507;48.454;-2.058;2023-06-04T12:03:48;24.60;53.50
76613;DHT22;65507;48.454;-2.058;2023-06-04T12:06:14;24.60;53.30
76613;DHT22;65507;48.454;-2.058;2023-06-04T12:08:47;24.60;53.10
76613;DHT22;65507;48.454;-2.058;2023-06-04T12:13:55;24.10;52.90
76613;DHT22;65507;48.454;-2.058;2023-06-04T12:16:21;24.80;53.10
76613;DHT22;65507;48.454;-2.058;2023-06-04T12:18:46;25.00;52.90
76613;DHT22;65507;48.454;-2.058;2023-06-04T12:21:20;25.00;52.70
76613;DHT22;65507;48.454;-2.058;2023-06-04T12:23:47;25.00;52.70
76613;DHT22;65507;48.454;-2.058;2023-06-04T12:26:22;25.20;52.70
76613;DHT22;65507;48.454;-2.058;2023-06-04T12:28:58;25.20;52.70
76613;DHT22;65507;48.454;-2.058;2023-06-04T12:31:23;25.30;52.50
76613;DHT22;65507;48.454;-2.058;2023-06-04T12:33:49;25.30;52.60
76613;DHT22;65507;48.454;-2.058;2023-06-04T12:36:14;25.30;52.50
76613;DHT22;65507;48.454;-2.058;2023-06-04T12:38:40;25.30;52.50
76613;DHT22;65507;48.454;-2.058;2023-06-04T12:41:06;25.50;52.50
76613;DHT22;65507;48.454;-2.058;2023-06-04T12:43:31;25.60;52.30
76613;DHT22;65507;48.454;-2.058;2023-06-04T12:45:59;25.60;52.10
76613;DHT22;65507;48.454;-2.058;2023-06-04T12:48:25;25.70;52.10
76613;DHT22;65507;48.454;-2.058;2023-06-04T12:50:50;25.80;51.90
76613;DHT22;65507;48.454;-2.058;2023-06-04T12:53:16;25.80;51.70
76613;DHT22;65507;48.454;-2.058;2023-06-04T12:55:41;25.70;51.90
76613;DHT22;65507;48.454;-2.058;2023-06-04T12:58:07;25.80;51.90
76613;DHT22;65507;48.454;-2.058;2023-06-04T13:00:32;25.90;51.90
76613;DHT22;65507;48.454;-2.058;2023-06-04T13:02:58;26.00;51.80
76613;DHT22;65507;48.454;-2.058;2023-06-04T13:05:23;26.10;51.70
76613;DHT22;65507;48.454;-2.058;2023-06-04T13:07:49;26.20;51.50
76613;DHT22;65507;48.454;-2.058;2023-06-04T13:10:15;26.20;51.60
76613;DHT22;65507;48.454;-2.058;2023-06-04T13:12:41;26.30;51.60
76613;DHT22;65507;48.454;-2.058;2023-06-04T13:15:06;26.20;51.40
76613;DHT22;65507;48.454;-2.058;2023-06-04T13:17:32;26.20;51.40
76613;DHT22;65507;48.454;-2.058;2023-06-04T13:19:58;26.20;51.40
76613;DHT22;65507;48.454;-2.058;2023-06-04T13:22:24;26.20;51.40
76613;DHT22;65507;48.454;-2.058;2023-06-04T13:24:49;26.30;51.40
76613;DHT22;65507;48.454;-2.058;2023-06-04T13:27:15;26.30;51.20
76613;DHT22;65507;48.454;-2.058;2023-06-04T13:29:40;26.30;51.20
76613;DHT22;65507;48.454;-2.058;2023-06-04T13:32:06;26.40;51.20
76613;DHT22;65507;48.454;-2.058;2023-06-04T13:34:33;26.40;51.10
76613;DHT22;65507;48.454;-2.058;2023-06-04T13:36:59;26.40;50.90
76613;DHT22;65507;48.454;-2.058;2023-06-04T13:39:25;26.40;50.80
76613;DHT22;65507;48.454;-2.058;2023-06-04T13:41:50;26.40;50.90
76613;DHT22;65507;48.454;-2.058;2023-06-04T13:44:16;26.40;50.70
76613;DHT22;65507;48.454;-2.058;2023-06-04T13:46:41;26.40;50.80
76613;DHT22;65507;48.454;-2.058;2023-06-04T13:49:07;26.40;50.70
76613;DHT22;65507;48.454;-2.058;2023-06-04T13:51:33;26.50;50.60
76613;DHT22;65507;48.454;-2.058;2023-06-04T13:53:58;26.50;50.40
76613;DHT22;65507;48.454;-2.058;2023-06-04T13:56:24;26.50;50.40
76613;DHT22;65507;48.454;-2.058;2023-06-04T13:58:50;26.60;50.50
76613;DHT22;65507;48.454;-2.058;2023-06-04T14:01:16;26.70;50.30
76613;DHT22;65507;48.454;-2.058;2023-06-04T14:03:42;26.80;50.30
76613;DHT22;65507;48.454;-2.058;2023-06-04T14:06:07;26.80;50.10
76613;DHT22;65507;48.454;-2.058;2023-06-04T14:08:33;26.70;49.80
76613;DHT22;65507;48.454;-2.058;2023-06-04T14:10:58;26.60;50.00
76613;DHT22;65507;48.454;-2.058;2023-06-04T14:13:24;26.60;50.20
76613;DHT22;65507;48.454;-2.058;2023-06-04T14:15:49;26.60;50.10
76613;DHT22;65507;48.454;-2.058;2023-06-04T14:18:16;26.50;50.10
76613;DHT22;65507;48.454;-2.058;2023-06-04T14:20:42;26.50;50.00
76613;DHT22;65507;48.454;-2.058;2023-06-04T14:23:07;26.40;49.90
76613;DHT22;65507;48.454;-2.058;2023-06-04T14:25:33;26.30;49.90
76613;DHT22;65507;48.454;-2.058;2023-06-04T14:28:01;26.20;49.90
76613;DHT22;65507;48.454;-2.058;2023-06-04T14:30:27;26.20;50.00
76613;DHT22;65507;48.454;-2.058;2023-06-04T14:32:53;26.20;49.60
76613;DHT22;65507;48.454;-2.058;2023-06-04T14:35:18;26.10;49.80
76613;DHT22;65507;48.454;-2.058;2023-06-04T14:37:44;26.20;49.90
76613;DHT22;65507;48.454;-2.058;2023-06-04T14:40:09;26.20;49.80
76613;DHT22;65507;48.454;-2.058;2023-06-04T14:42:35;26.20;49.80
76613;DHT22;65507;48.454;-2.058;2023-06-04T14:45:01;26.20;49.80
76613;DHT22;65507;48.454;-2.058;2023-06-04T14:47:26;26.20;49.60
76613;DHT22;65507;48.454;-2.058;2023-06-04T14:49:52;26.20;49.50
76613;DHT22;65507;48.454;-2.058;2023-06-04T14:52:17;26.20;49.60
76613;DHT22;65507;48.454;-2.058;2023-06-04T14:54:43;26.10;49.50
76613;DHT22;65507;48.454;-2.058;2023-06-04T14:57:08;26.20;49.60
76613;DHT22;65507;48.454;-2.058;2023-06-04T14:59:35;26.20;49.50
76613;DHT22;65507;48.454;-2.058;2023-06-04T15:02:01;26.20;49.40
76613;DHT22;65507;48.454;-2.058;2023-06-04T15:04:26;26.20;49.50
76613;DHT22;65507;48.454;-2.058;2023-06-04T15:06:52;26.20;49.50
76613;DHT22;65507;48.454;-2.058;2023-06-04T15:09:17;26.30;49.30
76613;DHT22;65507;48.454;-2.058;2023-06-04T15:11:43;26.30;49.20
76613;DHT22;65507;48.454;-2.058;2023-06-04T15:14:08;26.20;49.20